sensor_id;sensor_type;location;lat;lon;timestamp;P1;durP1;ratioP1;P2;durP2;ratioP2
38034;SDS011;23841;48.524;1.342;2023-06-04T00:01:04;6.03;;;2.53;;
38034;SDS011;23841;48.524;1.342;2023-06-04T00:03:30;5.53;;;2.80;;
38034;SDS011;23841;48.524;1.342;2023-06-04T00:05:56;5.28;;;2.70;;
38034;SDS011;23841;48.524;1.342;2023-06-04T00:08:22;3.90;;;2.40;;
38034;SDS011;23841;48.524;1.342;2023-06-04T00:10:47;5.10;;;2.58;;
38034;SDS011;23841;48.524;1.342;2023-06-04T00:13:13;4.05;;;2.35;;
38034;SDS011;23841;48.524;1.342;2023-06-04T00:15:38;4.38;;;2.38;;
38034;SDS011;23841;48.524;1.342;2023-06-04T00:18:04;4.18;;;2.30;;
38034;SDS011;23841;48.524;1.342;2023-06-04T00:20:30;3.80;;;2.28;;
38034;SDS011;23841;48.524;1.342;2023-06-04T00:22:55;4.72;;;2.60;;
38034;SDS011;23841;48.524;1.342;2023-06-04T00:25:20;6.00;;;2.70;;
38034;SDS011;23841;48.524;1.342;2023-06-04T00:27:46;5.82;;;2.70;;
38034;SDS011;23841;48.524;1.342;2023-06-04T00:30:11;4.75;;;2.20;;
38034;SDS011;23841;48.524;1.342;2023-06-04T00:32:37;4.28;;;2.15;;
38034;SDS011;23841;48.524;1.342;2023-06-04T00:35:03;4.03;;;2.20;;
38034;SDS011;23841;48.524;1.342;2023-06-04T00:37:28;3.78;;;2.13;;
38034;SDS011;23841;48.524;1.342;2023-06-04T00:39:54;3.50;;;2.00;;
38034;SDS011;23841;48.524;1.342;2023-06-04T00:42:20;4.15;;;2.33;;
38034;SDS011;23841;48.524;1.342;2023-06-04T00:44:46;5.90;;;2.38;;
38034;SDS011;23841;48.524;1.342;2023-06-04T00:47:15;5.65;;;2.58;;
38034;SDS011;23841;48.524;1.342;2023-06-04T00:49:41;4.38;;;2.10;;
38034;SDS011;23841;48.524;1.342;2023-06-04T00:52:08;2.92;;;2.00;;
38034;SDS011;23841;48.524;1.342;2023-06-04T00:54:35;3.72;;;2.03;;
38034;SDS011;23841;48.524;1.342;2023-06-04T00:57:01;4.60;;;2.15;;
38034;SDS011;23841;48.524;1.342;2023-06-04T00:59:27;3.92;;;2.20;;
38034;SDS011;23841;48.524;1.342;2023-06-04T01:02:07;4.82;;;2.50;;
38034;SDS011;23841;48.524;1.342;2023-06-04T01:04:37;4.43;;;2.33;;
38034;SDS011;23841;48.524;1.342;2023-06-04T01:07:09;3.22;;;2.13;;
38034;SDS011;23841;48.524;1.342;2023-06-04T01:09:37;6.25;;;2.00;;
38034;SDS011;23841;48.524;1.342;2023-06-04T01:12:04;5.30;;;2.15;;
38034;SDS011;23841;48.524;1.342;2023-06-04T01:14:30;3.67;;;2.03;;
38034;SDS011;23841;48.524;1.342;2023-06-04T01:17:02;4.60;;;2.60;;
38034;SDS011;23841;48.524;1.342;2023-06-04T01:22:10;3.72;;;1.85;;
38034;SDS011;23841;48.524;1.342;2023-06-04T01:24:45;3.90;;;1.90;;
38034;SDS011;23841;48.524;1.342;2023-06-04T01:27:20;4.50;;;2.25;;
38034;SDS011;23841;48.524;1.342;2023-06-04T01:29:47;2.75;;;1.70;;
38034;SDS011;23841;48.524;1.342;2023-06-04T01:32:15;3.28;;;1.85;;
38034;SDS011;23841;48.524;1.342;2023-06-04T01:34:46;3.95;;;2.33;;
38034;SDS011;23841;48.524;1.342;2023-06-04T01:37:11;5.63;;;1.90;;
38034;SDS011;23841;48.524;1.342;2023-06-04T01:39:38;3.92;;;2.20;;
38034;SDS011;23841;48.524;1.342;2023-06-04T01:42:04;3.78;;;2.08;;
38034;SDS011;23841;48.524;1.342;2023-06-04T01:44:29;6.03;;;2.22;;
38034;SDS011;23841;48.524;1.342;2023-06-04T01:46:55;4.63;;;2.03;;
38034;SDS011;23841;48.524;1.342;2023-06-04T01:49:20;4.25;;;1.88;;
38034;SDS011;23841;48.524;1.342;2023-06-04T01:51:46;3.25;;;1.80;;
38034;SDS011;23841;48.524;1.342;2023-06-04T01:54:11;3.42;;;2.00;;
38034;SDS011;23841;48.524;1.342;2023-06-04T01:56:36;3.72;;;2.00;;
38034;SDS011;23841;48.524;1.342;2023-06-04T01:59:02;4.10;;;1.90;;
38034;SDS011;23841;48.524;1.342;2023-06-04T02:01:27;3.65;;;1.83;;
38034;SDS011;23841;48.524;1.342;2023-06-04T02:03:52;4.07;;;2.15;;
38034;SDS011;23841;48.524;1.342;2023-06-04T02:06:18;6.07;;;1.98;;
38034;SDS011;23841;48.524;1.342;2023-06-04T02:08:43;4.07;;;2.30;;
38034;SDS011;23841;48.524;1.342;2023-06-04T02:11:09;4.38;;;1.88;;
38034;SDS011;23841;48.524;1.342;2023-06-04T02:13:35;3.38;;;1.80;;
38034;SDS011;23841;48.524;1.342;2023-06-04T02:16:00;3.67;;;1.63;;
38034;SDS011;23841;48.524;1.342;2023-06-04T02:18:26;3.83;;;1.90;;
38034;SDS011;23841;48.524;1.342;2023-06-04T02:20:52;3.67;;;1.90;;
38034;SDS011;23841;48.524;1.342;2023-06-04T02:23:18;2.58;;;1.83;;
38034;SDS011;23841;48.524;1.342;2023-06-04T02:25:44;3.35;;;1.70;;
38034;SDS011;23841;48.524;1.342;2023-06-04T02:28:10;3.72;;;1.60;;
38034;SDS011;23841;48.524;1.342;2023-06-04T02:30:36;3.95;;;1.67;;
38034;SDS011;23841;48.524;1.342;2023-06-04T02:33:02;4.78;;;2.08;;
38034;SDS011;23841;48.524;1.342;2023-06-04T02:35:29;5.30;;;1.73;;
38034;SDS011;23841;48.524;1.342;2023-06-04T02:37:55;6.03;;;1.70;;
38034;SDS011;23841;48.524;1.342;2023-06-04T02:40:27;3.53;;;1.73;;
38034;SDS011;23841;48.524;1.342;2023-06-04T02:42:53;4.30;;;2.00;;
38034;SDS011;23841;48.524;1.342;2023-06-04T02:45:20;3.53;;;1.55;;
38034;SDS011;23841;48.524;1.342;2023-06-04T02:47:45;3.25;;;1.50;;
38034;SDS011;23841;48.524;1.342;2023-06-04T02:50:11;3.65;;;1.52;;
38034;SDS011;23841;48.524;1.342;2023-06-04T02:52:38;4.35;;;2.22;;
38034;SDS011;23841;48.524;1.342;2023-06-04T02:55:05;2.78;;;1.55;;
38034;SDS011;23841;48.524;1.342;2023-06-04T02:57:32;3.88;;;1.77;;
38034;SDS011;23841;48.524;1.342;2023-06-04T02:59:58;3.33;;;1.50;;
38034;SDS011;23841;48.524;1.342;2023-06-04T03:02:24;3.55;;;1.60;;
38034;SDS011;23841;48.524;1.342;2023-06-04T03:04:50;3.75;;;1.70;;
38034;SDS011;23841;48.524;1.342;2023-06-04T03:07:16;2.22;;;1.20;;
38034;SDS011;23841;48.524;1.342;2023-06-04T03:09:45;3.53;;;1.70;;
38034;SDS011;23841;48.524;1.342;2023-06-04T03:12:11;3.63;;;1.50;;
38034;SDS011;23841;48.524;1.342;2023-06-04T03:14:36;2.40;;;1.50;;
38034;SDS011;23841;48.524;1.342;2023-06-04T03:17:02;2.63;;;1.60;;
38034;SDS011;23841;48.524;1.342;2023-06-04T03:19:36;3.83;;;1.38;;
38034;SDS011;23841;48.524;1.342;2023-06-04T03:22:03;3.72;;;1.85;;
38034;SDS011;23841;48.524;1.342;2023-06-04T03:24:37;3.35;;;1.40;;
38034;SDS011;23841;48.524;1.342;2023-06-04T03:27:04;3.90;;;1.55;;
38034;SDS011;23841;48.524;1.342;2023-06-04T03:29:31;3.35;;;1.60;;
38034;SDS011;23841;48.524;1.342;2023-06-04T03:31:57;3.78;;;1.52;;
38034;SDS011;23841;48.524;1.342;2023-06-04T03:34:23;4.03;;;1.58;;
38034;SDS011;23841;48.524;1.342;2023-06-04T03:36:51;2.93;;;1.20;;
38034;SDS011;23841;48.524;1.342;2023-06-04T03:39:17;2.63;;;1.20;;
38034;SDS011;23841;48.524;1.342;2023-06-04T03:41:43;4.05;;;1.70;;
38034;SDS011;23841;48.524;1.342;2023-06-04T03:44:08;2.83;;;1.50;;
38034;SDS011;23841;48.524;1.342;2023-06-04T03:46:33;4.07;;;1.70;;
38034;SDS011;23841;48.524;1.342;2023-06-04T03:49:00;2.85;;;1.40;;
38034;SDS011;23841;48.524;1.342;2023-06-04T03:51:26;2.70;;;1.45;;
38034;SDS011;23841;48.524;1.342;2023-06-04T03:53:51;3.97;;;1.90;;
38034;SDS011;23841;48.524;1.342;2023-06-04T03:56:17;3.10;;;1.48;;
38034;SDS011;23841;48.524;1.342;2023-06-04T03:58:42;2.38;;;1.35;;
38034;SDS011;23841;48.524;1.342;2023-06-04T04:01:08;3.83;;;1.60;;
38034;SDS011;23841;48.524;1.342;2023-06-04T04:03:35;4.90;;;1.50;;
38034;SDS011;23841;48.524;1.342;2023-06-04T04:06:01;2.42;;;1.38;;
38034;SDS011;23841;48.524;1.342;2023-06-04T04:08:26;4.63;;;1.52;;
38034;SDS011;23841;48.524;1.342;2023-06-04T04:10:59;5.18;;;1.50;;
38034;SDS011;23841;48.524;1.342;2023-06-04T04:13:25;3.83;;;1.88;;
38034;SDS011;23841;48.524;1.342;2023-06-04T04:15:50;2.65;;;1.50;;
38034;SDS011;23841;48.524;1.342;2023-06-04T04:18:17;3.22;;;1.50;;
38034;SDS011;23841;48.524;1.342;2023-06-04T04:20:45;3.75;;;1.40;;
38034;SDS011;23841;48.524;1.342;2023-06-04T04:23:11;5.15;;;1.70;;
38034;SDS011;23841;48.524;1.342;2023-06-04T04:25:37;4.72;;;1.30;;
38034;SDS011;23841;48.524;1.342;2023-06-04T04:28:03;3.85;;;1.63;;
38034;SDS011;23841;48.524;1.342;2023-06-04T04:30:32;5.88;;;1.80;;
38034;SDS011;23841;48.524;1.342;2023-06-04T04:32:59;4.15;;;1.58;;
38034;SDS011;23841;48.524;1.342;2023-06-04T04:35:25;3.22;;;1.35;;
38034;SDS011;23841;48.524;1.342;2023-06-04T04:37:51;2.72;;;1.52;;
38034;SDS011;23841;48.524;1.342;2023-06-04T04:40:16;3.63;;;1.50;;
38034;SDS011;23841;48.524;1.342;2023-06-04T04:42:42;3.97;;;1.83;;
38034;SDS011;23841;48.524;1.342;2023-06-04T04:45:07;3.33;;;1.30;;
38034;SDS011;23841;48.524;1.342;2023-06-04T04:47:33;5.35;;;1.45;;
38034;SDS011;23841;48.524;1.342;2023-06-04T04:49:58;4.15;;;1.77;;
38034;SDS011;23841;48.524;1.342;2023-06-04T04:52:24;3.45;;;1.60;;
38034;SDS011;23841;48.524;1.342;2023-06-04T04:54:49;2.88;;;1.45;;
38034;SDS011;23841;48.524;1.342;2023-06-04T04:57:15;3.40;;;1.85;;
38034;SDS011;23841;48.524;1.342;2023-06-04T04:59:41;2.83;;;1.27;;
38034;SDS011;23841;48.524;1.342;2023-06-04T05:02:06;2.90;;;1.65;;
38034;SDS011;23841;48.524;1.342;2023-06-04T05:04:31;3.53;;;1.60;;
38034;SDS011;23841;48.524;1.342;2023-06-04T05:06:57;2.90;;;1.42;;
38034;SDS011;23841;48.524;1.342;2023-06-04T05:09:22;3.88;;;1.45;;
38034;SDS011;23841;48.524;1.342;2023-06-04T05:11:48;3.35;;;1.48;;
38034;SDS011;23841;48.524;1.342;2023-06-04T05:14:13;3.72;;;1.60;;
38034;SDS011;23841;48.524;1.342;2023-06-04T05:16:39;3.38;;;1.50;;
38034;SDS011;23841;48.524;1.342;2023-06-04T05:19:05;4.38;;;1.45;;
38034;SDS011;23841;48.524;1.342;2023-06-04T05:21:31;3.67;;;1.50;;
38034;SDS011;23841;48.524;1.342;2023-06-04T05:23:56;3.83;;;1.70;;
38034;SDS011;23841;48.524;1.342;2023-06-04T05:26:22;3.80;;;1.50;;
38034;SDS011;23841;48.524;1.342;2023-06-04T05:28:50;3.67;;;1.40;;
38034;SDS011;23841;48.524;1.342;2023-06-04T05:31:16;2.97;;;1.40;;
38034;SDS011;23841;48.524;1.342;2023-06-04T05:33:43;3.60;;;1.40;;
38034;SDS011;23841;48.524;1.342;2023-06-04T05:36:08;3.40;;;1.70;;
38034;SDS011;23841;48.524;1.342;2023-06-04T05:38:34;3.63;;;1.73;;
38034;SDS011;23841;48.524;1.342;2023-06-04T05:41:00;3.08;;;1.55;;
38034;SDS011;23841;48.524;1.342;2023-06-04T05:43:26;2.88;;;1.40;;
38034;SDS011;23841;48.524;1.342;2023-06-04T05:45:51;3.28;;;1.40;;
38034;SDS011;23841;48.524;1.342;2023-06-04T05:48:17;3.67;;;1.42;;
38034;SDS011;23841;48.524;1.342;2023-06-04T05:50:42;3.35;;;1.60;;
38034;SDS011;23841;48.524;1.342;2023-06-04T05:53:09;3.38;;;1.55;;
38034;SDS011;23841;48.524;1.342;2023-06-04T05:55:34;3.08;;;1.35;;
38034;SDS011;23841;48.524;1.342;2023-06-04T05:57:59;2.95;;;1.35;;
38034;SDS011;23841;48.524;1.342;2023-06-04T06:00:25;3.20;;;1.55;;
38034;SDS011;23841;48.524;1.342;2023-06-04T06:02:51;3.17;;;1.50;;
38034;SDS011;23841;48.524;1.342;2023-06-04T06:05:18;2.83;;;1.38;;
38034;SDS011;23841;48.524;1.342;2023-06-04T06:07:44;2.10;;;1.20;;
38034;SDS011;23841;48.524;1.342;2023-06-04T06:10:10;3.75;;;1.50;;
38034;SDS011;23841;48.524;1.342;2023-06-04T06:12:35;3.60;;;1.45;;
38034;SDS011;23841;48.524;1.342;2023-06-04T06:15:01;2.35;;;1.58;;
38034;SDS011;23841;48.524;1.342;2023-06-04T06:17:26;2.83;;;1.75;;
38034;SDS011;23841;48.524;1.342;2023-06-04T06:19:53;4.50;;;1.88;;
38034;SDS011;23841;48.524;1.342;2023-06-04T06:22:19;4.13;;;1.63;;
38034;SDS011;23841;48.524;1.342;2023-06-04T06:24:44;5.07;;;1.60;;
38034;SDS011;23841;48.524;1.342;2023-06-04T06:27:10;3.95;;;1.67;;
38034;SDS011;23841;48.524;1.342;2023-06-04T06:29:36;2.50;;;1.40;;
38034;SDS011;23841;48.524;1.342;2023-06-04T06:32:02;4.80;;;1.70;;
38034;SDS011;23841;48.524;1.342;2023-06-04T06:34:27;2.95;;;1.50;;
38034;SDS011;23841;48.524;1.342;2023-06-04T06:36:53;2.55;;;1.20;;
38034;SDS011;23841;48.524;1.342;2023-06-04T06:39:18;2.38;;;1.25;;
38034;SDS011;23841;48.524;1.342;2023-06-04T06:41:44;3.35;;;1.58;;
38034;SDS011;23841;48.524;1.342;2023-06-04T06:44:10;2.53;;;1.33;;
38034;SDS011;23841;48.524;1.342;2023-06-04T06:46:36;4.43;;;1.60;;
38034;SDS011;23841;48.524;1.342;2023-06-04T06:49:01;3.17;;;1.52;;
38034;SDS011;23841;48.524;1.342;2023-06-04T06:51:26;3.25;;;1.40;;
38034;SDS011;23841;48.524;1.342;2023-06-04T06:53:52;2.85;;;1.77;;
38034;SDS011;23841;48.524;1.342;2023-06-04T06:56:17;3.65;;;1.30;;
38034;SDS011;23841;48.524;1.342;2023-06-04T06:58:43;3.03;;;1.52;;
38034;SDS011;23841;48.524;1.342;2023-06-04T07:01:09;4.32;;;1.80;;
38034;SDS011;23841;48.524;1.342;2023-06-04T07:03:35;4.75;;;1.77;;
38034;SDS011;23841;48.524;1.342;2023-06-04T07:06:00;3.03;;;1.30;;
38034;SDS011;23841;48.524;1.342;2023-06-04T07:08:26;3.00;;;1.38;;
38034;SDS011;23841;48.524;1.342;2023-06-04T07:10:51;3.67;;;1.50;;
38034;SDS011;23841;48.524;1.342;2023-06-04T07:13:17;3.38;;;1.80;;
38034;SDS011;23841;48.524;1.342;2023-06-04T07:15:42;3.67;;;1.40;;
38034;SDS011;23841;48.524;1.342;2023-06-04T07:18:08;2.97;;;1.60;;
38034;SDS011;23841;48.524;1.342;2023-06-04T07:20:33;5.43;;;1.50;;
38034;SDS011;23841;48.524;1.342;2023-06-04T07:22:58;4.13;;;1.70;;
38034;SDS011;23841;48.524;1.342;2023-06-04T07:25:24;3.78;;;1.50;;
38034;SDS011;23841;48.524;1.342;2023-06-04T07:27:50;3.58;;;1.52;;
38034;SDS011;23841;48.524;1.342;2023-06-04T07:30:16;3.30;;;1.60;;
38034;SDS011;23841;48.524;1.342;2023-06-04T07:32:45;4.30;;;1.80;;
38034;SDS011;23841;48.524;1.342;2023-06-04T07:35:12;2.78;;;1.50;;
38034;SDS011;23841;48.524;1.342;2023-06-04T07:37:37;3.20;;;1.70;;
38034;SDS011;23841;48.524;1.342;2023-06-04T07:40:03;3.60;;;1.60;;
38034;SDS011;23841;48.524;1.342;2023-06-04T07:42:29;4.38;;;1.40;;
38034;SDS011;23841;48.524;1.342;2023-06-04T07:44:54;2.78;;;1.70;;
38034;SDS011;23841;48.524;1.342;2023-06-04T07:47:20;3.60;;;1.30;;
38034;SDS011;23841;48.524;1.342;2023-06-04T07:49:47;3.10;;;1.40;;
38034;SDS011;23841;48.524;1.342;2023-06-04T07:52:12;3.08;;;1.45;;
38034;SDS011;23841;48.524;1.342;2023-06-04T07:54:38;3.80;;;2.28;;
38034;SDS011;23841;48.524;1.342;2023-06-04T07:57:06;3.45;;;1.80;;
38034;SDS011;23841;48.524;1.342;2023-06-04T07:59:31;3.72;;;1.58;;
38034;SDS011;23841;48.524;1.342;2023-06-04T08:01:57;3.38;;;1.75;;
38034;SDS011;23841;48.524;1.342;2023-06-04T08:04:22;4.22;;;1.80;;
38034;SDS011;23841;48.524;1.342;2023-06-04T08:06:47;3.15;;;1.42;;
38034;SDS011;23841;48.524;1.342;2023-06-04T08:09:14;2.47;;;1.40;;
38034;SDS011;23841;48.524;1.342;2023-06-04T08:11:41;3.20;;;1.45;;
38034;SDS011;23841;48.524;1.342;2023-06-04T08:14:07;4.30;;;1.38;;
38034;SDS011;23841;48.524;1.342;2023-06-04T08:16:33;3.10;;;1.88;;
38034;SDS011;23841;48.524;1.342;2023-06-04T08:18:58;4.60;;;1.50;;
38034;SDS011;23841;48.524;1.342;2023-06-04T08:21:27;3.92;;;1.60;;
38034;SDS011;23841;48.524;1.342;2023-06-04T08:23:53;3.28;;;1.50;;
38034;SDS011;23841;48.524;1.342;2023-06-04T08:26:18;4.63;;;1.58;;
38034;SDS011;23841;48.524;1.342;2023-06-04T08:28:47;6.28;;;3.05;;
38034;SDS011;23841;48.524;1.342;2023-06-04T08:31:13;5.50;;;3.05;;
38034;SDS011;23841;48.524;1.342;2023-06-04T08:33:38;8.32;;;4.50;;
38034;SDS011;23841;48.524;1.342;2023-06-04T08:36:04;6.90;;;4.10;;
38034;SDS011;23841;48.524;1.342;2023-06-04T08:38:30;10.60;;;4.95;;
38034;SDS011;23841;48.524;1.342;2023-06-04T08:40:55;8.77;;;4.20;;
38034;SDS011;23841;48.524;1.342;2023-06-04T08:43:27;6.97;;;4.10;;
38034;SDS011;23841;48.524;1.342;2023-06-04T08:45:57;7.13;;;4.00;;
38034;SDS011;23841;48.524;1.342;2023-06-04T08:48:24;6.70;;;3.47;;
38034;SDS011;23841;48.524;1.342;2023-06-04T08:50:53;9.20;;;4.22;;
38034;SDS011;23841;48.524;1.342;2023-06-04T08:53:22;8.05;;;4.55;;
38034;SDS011;23841;48.524;1.342;2023-06-04T08:55:49;8.07;;;4.10;;
38034;SDS011;23841;48.524;1.342;2023-06-04T08:58:16;7.75;;;4.50;;
38034;SDS011;23841;48.524;1.342;2023-06-04T09:00:43;8.43;;;4.25;;
38034;SDS011;23841;48.524;1.342;2023-06-04T09:03:09;8.93;;;4.95;;
38034;SDS011;23841;48.524;1.342;2023-06-04T09:05:36;7.30;;;4.03;;
38034;SDS011;23841;48.524;1.342;2023-06-04T09:08:02;8.23;;;4.50;;
38034;SDS011;23841;48.524;1.342;2023-06-04T09:10:32;8.43;;;4.55;;
38034;SDS011;23841;48.524;1.342;2023-06-04T09:13:01;7.97;;;3.95;;
38034;SDS011;23841;48.524;1.342;2023-06-04T09:15:28;7.30;;;3.72;;
38034;SDS011;23841;48.524;1.342;2023-06-04T09:17:53;8.02;;;3.85;;
38034;SDS011;23841;48.524;1.342;2023-06-04T09:20:20;7.55;;;3.42;;
38034;SDS011;23841;48.524;1.342;2023-06-04T09:22:49;6.18;;;3.55;;
38034;SDS011;23841;48.524;1.342;2023-06-04T09:25:21;6.28;;;3.55;;
38034;SDS011;23841;48.524;1.342;2023-06-04T09:27:56;6.70;;;3.80;;
38034;SDS011;23841;48.524;1.342;2023-06-04T09:30:30;5.47;;;2.60;;
38034;SDS011;23841;48.524;1.342;2023-06-04T09:33:05;5.55;;;2.58;;
38034;SDS011;23841;48.524;1.342;2023-06-04T09:35:31;5.38;;;2.55;;
38034;SDS011;23841;48.524;1.342;2023-06-04T09:37:57;4.95;;;2.80;;
38034;SDS011;23841;48.524;1.342;2023-06-04T09:40:23;5.50;;;2.78;;
38034;SDS011;23841;48.524;1.342;2023-06-04T09:42:49;5.30;;;2.55;;
38034;SDS011;23841;48.524;1.342;2023-06-04T09:45:34;4.95;;;2.30;;
38034;SDS011;23841;48.524;1.342;2023-06-04T09:48:00;5.93;;;3.13;;
38034;SDS011;23841;48.524;1.342;2023-06-04T09:52:53;6.63;;;2.33;;
38034;SDS011;23841;48.524;1.342;2023-06-04T09:55:19;5.78;;;3.08;;
38034;SDS011;23841;48.524;1.342;2023-06-04T09:57:48;4.50;;;2.55;;
38034;SDS011;23841;48.524;1.342;2023-06-04T10:00:19;4.72;;;2.00;;
38034;SDS011;23841;48.524;1.342;2023-06-04T10:02:47;3.30;;;1.80;;
38034;SDS011;23841;48.524;1.342;2023-06-04T10:05:14;3.03;;;1.70;;
38034;SDS011;23841;48.524;1.342;2023-06-04T10:07:44;4.55;;;1.80;;
38034;SDS011;23841;48.524;1.342;2023-06-04T10:10:11;4.65;;;2.55;;
38034;SDS011;23841;48.524;1.342;2023-06-04T10:12:41;3.67;;;2.10;;
38034;SDS011;23841;48.524;1.342;2023-06-04T10:15:10;4.35;;;2.40;;
38034;SDS011;23841;48.524;1.342;2023-06-04T10:17:37;3.60;;;1.90;;
38034;SDS011;23841;48.524;1.342;2023-06-04T10:20:03;3.63;;;2.15;;
38034;SDS011;23841;48.524;1.342;2023-06-04T10:22:30;3.33;;;1.85;;
38034;SDS011;23841;48.524;1.342;2023-06-04T10:24:57;3.22;;;1.80;;
38034;SDS011;23841;48.524;1.342;2023-06-04T10:27:23;3.25;;;2.10;;
38034;SDS011;23841;48.524;1.342;2023-06-04T10:29:50;2.92;;;1.98;;
38034;SDS011;23841;48.524;1.342;2023-06-04T10:32:15;2.80;;;1.70;;
38034;SDS011;23841;48.524;1.342;2023-06-04T10:34:42;4.50;;;2.17;;
38034;SDS011;23841;48.524;1.342;2023-06-04T10:37:18;4.38;;;1.85;;
38034;SDS011;23841;48.524;1.342;2023-06-04T10:39:49;4.22;;;2.25;;
38034;SDS011;23841;48.524;1.342;2023-06-04T10:42:17;8.50;;;3.30;;
38034;SDS011;23841;48.524;1.342;2023-06-04T10:44:46;5.03;;;2.40;;
38034;SDS011;23841;48.524;1.342;2023-06-04T10:47:22;3.78;;;1.65;;
38034;SDS011;23841;48.524;1.342;2023-06-04T10:49:50;3.45;;;1.83;;
38034;SDS011;23841;48.524;1.342;2023-06-04T10:52:16;3.20;;;1.55;;
38034;SDS011;23841;48.524;1.342;2023-06-04T10:54:42;4.00;;;2.13;;
38034;SDS011;23841;48.524;1.342;2023-06-04T10:57:13;4.80;;;2.10;;
38034;SDS011;23841;48.524;1.342;2023-06-04T10:59:39;4.40;;;1.92;;
38034;SDS011;23841;48.524;1.342;2023-06-04T11:02:05;3.75;;;2.00;;
38034;SDS011;23841;48.524;1.342;2023-06-04T11:04:32;2.95;;;1.70;;
38034;SDS011;23841;48.524;1.342;2023-06-04T11:07:04;3.70;;;1.77;;
38034;SDS011;23841;48.524;1.342;2023-06-04T11:09:37;3.08;;;1.70;;
38034;SDS011;23841;48.524;1.342;2023-06-04T11:12:12;3.17;;;1.70;;
38034;SDS011;23841;48.524;1.342;2023-06-04T11:14:37;4.35;;;1.98;;
38034;SDS011;23841;48.524;1.342;2023-06-04T11:17:09;5.35;;;1.70;;
38034;SDS011;23841;48.524;1.342;2023-06-04T11:19:36;3.10;;;1.67;;
38034;SDS011;23841;48.524;1.342;2023-06-04T11:22:03;4.10;;;2.60;;
38034;SDS011;23841;48.524;1.342;2023-06-04T11:24:35;3.53;;;1.92;;
38034;SDS011;23841;48.524;1.342;2023-06-04T11:27:01;3.45;;;1.70;;
38034;SDS011;23841;48.524;1.342;2023-06-04T11:29:27;3.60;;;1.80;;
38034;SDS011;23841;48.524;1.342;2023-06-04T11:31:53;5.82;;;1.70;;
38034;SDS011;23841;48.524;1.342;2023-06-04T11:34:22;3.90;;;1.85;;
38034;SDS011;23841;48.524;1.342;2023-06-04T11:36:49;3.47;;;1.58;;
38034;SDS011;23841;48.524;1.342;2023-06-04T11:39:14;2.60;;;1.60;;
38034;SDS011;23841;48.524;1.342;2023-06-04T11:41:40;3.72;;;1.90;;
38034;SDS011;23841;48.524;1.342;2023-06-04T11:44:06;2.17;;;1.40;;
38034;SDS011;23841;48.524;1.342;2023-06-04T11:46:32;3.88;;;1.73;;
38034;SDS011;23841;48.524;1.342;2023-06-04T11:48:58;3.30;;;1.65;;
38034;SDS011;23841;48.524;1.342;2023-06-04T11:51:24;6.18;;;1.90;;
38034;SDS011;23841;48.524;1.342;2023-06-04T11:53:51;5.45;;;2.03;;
38034;SDS011;23841;48.524;1.342;2023-06-04T11:56:17;4.55;;;1.50;;
38034;SDS011;23841;48.524;1.342;2023-06-04T11:58:43;3.45;;;1.40;;
38034;SDS011;23841;48.524;1.342;2023-06-04T12:01:10;3.05;;;1.48;;
38034;SDS011;23841;48.524;1.342;2023-06-04T12:03:37;3.33;;;1.42;;
38034;SDS011;23841;48.524;1.342;2023-06-04T12:08:49;3.70;;;1.50;;
38034;SDS011;23841;48.524;1.342;2023-06-04T12:11:34;4.13;;;1.65;;
38034;SDS011;23841;48.524;1.342;2023-06-04T12:14:04;3.42;;;1.50;;
38034;SDS011;23841;48.524;1.342;2023-06-04T12:16:30;3.67;;;1.30;;
38034;SDS011;23841;48.524;1.342;2023-06-04T12:19:09;4.13;;;1.65;;
38034;SDS011;23841;48.524;1.342;2023-06-04T12:21:36;2.50;;;1.50;;
38034;SDS011;23841;48.524;1.342;2023-06-04T12:24:09;2.83;;;1.50;;
38034;SDS011;23841;48.524;1.342;2023-06-04T12:26:35;2.83;;;1.55;;
38034;SDS011;23841;48.524;1.342;2023-06-04T12:29:12;3.05;;;1.50;;
38034;SDS011;23841;48.524;1.342;2023-06-04T12:31:39;3.45;;;1.73;;
38034;SDS011;23841;48.524;1.342;2023-06-04T12:34:05;2.03;;;1.13;;
38034;SDS011;23841;48.524;1.342;2023-06-04T12:36:31;4.30;;;1.73;;
38034;SDS011;23841;48.524;1.342;2023-06-04T12:38:59;2.22;;;1.40;;
38034;SDS011;23841;48.524;1.342;2023-06-04T12:41:26;2.80;;;1.50;;
38034;SDS011;23841;48.524;1.342;2023-06-04T12:43:52;2.58;;;1.30;;
38034;SDS011;23841;48.524;1.342;2023-06-04T12:46:18;3.35;;;1.60;;
38034;SDS011;23841;48.524;1.342;2023-06-04T12:48:44;3.33;;;1.40;;
38034;SDS011;23841;48.524;1.342;2023-06-04T12:51:10;4.85;;;1.98;;
38034;SDS011;23841;48.524;1.342;2023-06-04T12:53:39;2.40;;;1.40;;
38034;SDS011;23841;48.524;1.342;2023-06-04T12:56:08;4.45;;;1.60;;
38034;SDS011;23841;48.524;1.342;2023-06-04T12:58:34;4.40;;;1.60;;
38034;SDS011;23841;48.524;1.342;2023-06-04T13:01:00;2.83;;;1.52;;
38034;SDS011;23841;48.524;1.342;2023-06-04T13:03:26;4.80;;;1.88;;
38034;SDS011;23841;48.524;1.342;2023-06-04T13:05:52;3.28;;;1.92;;
38034;SDS011;23841;48.524;1.342;2023-06-04T13:08:18;3.58;;;1.60;;
38034;SDS011;23841;48.524;1.342;2023-06-04T13:10:45;2.65;;;1.50;;
38034;SDS011;23841;48.524;1.342;2023-06-04T13:13:11;3.90;;;1.63;;
38034;SDS011;23841;48.524;1.342;2023-06-04T13:15:36;4.32;;;1.58;;
38034;SDS011;23841;48.524;1.342;2023-06-04T13:18:03;4.35;;;1.58;;
38034;SDS011;23841;48.524;1.342;2023-06-04T13:20:28;2.55;;;1.65;;
38034;SDS011;23841;48.524;1.342;2023-06-04T13:22:54;3.70;;;1.67;;
38034;SDS011;23841;48.524;1.342;2023-06-04T13:25:20;3.67;;;1.70;;
38034;SDS011;23841;48.524;1.342;2023-06-04T13:27:47;2.80;;;1.60;;
38034;SDS011;23841;48.524;1.342;2023-06-04T13:30:13;4.43;;;1.38;;
38034;SDS011;23841;48.524;1.342;2023-06-04T13:32:39;2.60;;;1.48;;
38034;SDS011;23841;48.524;1.342;2023-06-04T13:35:04;3.90;;;1.45;;
38034;SDS011;23841;48.524;1.342;2023-06-04T13:37:30;3.50;;;1.80;;
38034;SDS011;23841;48.524;1.342;2023-06-04T13:39:55;2.90;;;1.48;;
38034;SDS011;23841;48.524;1.342;2023-06-04T13:42:21;2.75;;;1.50;;
38034;SDS011;23841;48.524;1.342;2023-06-04T13:44:46;3.30;;;1.58;;
38034;SDS011;23841;48.524;1.342;2023-06-04T13:47:12;2.80;;;1.48;;
38034;SDS011;23841;48.524;1.342;2023-06-04T13:49:37;4.45;;;1.67;;
38034;SDS011;23841;48.524;1.342;2023-06-04T13:52:02;3.00;;;1.52;;
38034;SDS011;23841;48.524;1.342;2023-06-04T13:54:28;2.47;;;1.40;;
38034;SDS011;23841;48.524;1.342;2023-06-04T13:56:53;2.15;;;1.27;;
38034;SDS011;23841;48.524;1.342;2023-06-04T13:59:18;3.05;;;1.83;;
38034;SDS011;23841;48.524;1.342;2023-06-04T14:01:44;3.60;;;1.20;;
38034;SDS011;23841;48.524;1.342;2023-06-04T14:04:09;2.97;;;1.58;;
38034;SDS011;23841;48.524;1.342;2023-06-04T14:06:36;2.92;;;1.63;;
38034;SDS011;23841;48.524;1.342;2023-06-04T14:09:02;3.42;;;1.70;;
38034;SDS011;23841;48.524;1.342;2023-06-04T14:11:29;2.83;;;1.58;;
38034;SDS011;23841;48.524;1.342;2023-06-04T14:13:54;4.80;;;1.63;;
38034;SDS011;23841;48.524;1.342;2023-06-04T14:16:20;2.45;;;1.40;;
38034;SDS011;23841;48.524;1.342;2023-06-04T14:18:45;6.28;;;1.80;;
38034;SDS011;23841;48.524;1.342;2023-06-04T14:21:11;2.10;;;1.30;;
38034;SDS011;23841;48.524;1.342;2023-06-04T14:23:36;2.60;;;1.30;;
38034;SDS011;23841;48.524;1.342;2023-06-04T14:26:02;3.42;;;1.65;;
38034;SDS011;23841;48.524;1.342;2023-06-04T14:28:27;3.60;;;1.67;;
38034;SDS011;23841;48.524;1.342;2023-06-04T14:30:52;2.90;;;1.60;;
38034;SDS011;23841;48.524;1.342;2023-06-04T14:33:18;2.15;;;1.30;;
38034;SDS011;23841;48.524;1.342;2023-06-04T14:35:43;4.57;;;1.70;;
38034;SDS011;23841;48.524;1.342;2023-06-04T14:38:12;3.00;;;1.70;;
38034;SDS011;23841;48.524;1.342;2023-06-04T14:40:39;3.00;;;1.52;;
38034;SDS011;23841;48.524;1.342;2023-06-04T14:43:05;3.67;;;1.60;;
38034;SDS011;23841;48.524;1.342;2023-06-04T14:45:30;2.30;;;1.30;;
38034;SDS011;23841;48.524;1.342;2023-06-04T14:47:56;3.03;;;1.60;;
38034;SDS011;23841;48.524;1.342;2023-06-04T14:50:21;3.10;;;1.63;;
38034;SDS011;23841;48.524;1.342;2023-06-04T14:52:47;2.92;;;1.50;;